createdAt,value
2022-12-25T00:00:01.620Z,9.60
2022-12-25T00:00:18.415Z,12.30
2022-12-25T00:00:21.701Z,9.90
2022-12-25T00:00:31.632Z,12.30
2022-12-25T00:00:41.635Z,9.80
2022-12-25T00:00:51.697Z,10.30
2022-12-25T00:01:01.654Z,9.60
2022-12-25T00:01:11.620Z,10.50
2022-12-25T00:01:21.569Z,12.00
2022-12-25T00:01:31.573Z,12.40
2022-12-25T00:01:41.628Z,11.40
2022-12-25T00:01:51.656Z,9.40
2022-12-25T00:02:01.642Z,10.70
2022-12-25T00:02:11.652Z,11.50
2022-12-25T00:02:21.740Z,14.60
2022-12-25T00:02:31.689Z,11.50
2022-12-25T00:02:41.643Z,15.40
2022-12-25T00:02:51.673Z,11.80
2022-12-25T00:03:01.700Z,11.20
2022-12-25T00:03:11.718Z,6.00
2022-12-25T00:03:21.656Z,5.50
2022-12-25T00:03:31.608Z,6.50
2022-12-25T00:03:41.712Z,6.60
2022-12-25T00:03:51.833Z,8.20
2022-12-25T00:04:01.595Z,11.50
2022-12-25T00:04:11.651Z,13.20
2022-12-25T00:04:21.530Z,12.80
2022-12-25T00:04:31.543Z,10.80
2022-12-25T00:04:41.650Z,11.20
2022-12-25T00:04:51.528Z,10.00
2022-12-25T00:05:01.595Z,9.50
2022-12-25T00:05:11.587Z,10.70
2022-12-25T00:05:21.619Z,12.00
2022-12-25T00:05:31.579Z,11.70
2022-12-25T00:05:41.531Z,10.10
2022-12-25T00:05:51.643Z,10.30
2022-12-25T00:06:01.559Z,9.70
2022-12-25T00:06:11.545Z,9.40
2022-12-25T00:06:21.646Z,8.20
2022-12-25T00:06:31.583Z,8.10
2022-12-25T00:06:41.566Z,10.60
2022-12-25T00:06:51.627Z,11.40
2022-12-25T00:07:01.657Z,11.20
2022-12-25T00:07:11.606Z,8.00
2022-12-25T00:07:21.651Z,9.00
2022-12-25T00:07:31.611Z,9.20
2022-12-25T00:07:41.553Z,11.20
2022-12-25T00:07:51.555Z,9.90
2022-12-25T00:08:01.542Z,12.60
2022-12-25T00:08:11.606Z,15.00
2022-12-25T00:08:21.660Z,14.00
2022-12-25T00:08:31.588Z,12.10
2022-12-25T00:08:41.533Z,12.80
2022-12-25T00:08:51.563Z,14.60
2022-12-25T00:09:01.597Z,14.40
2022-12-25T00:09:11.592Z,13.80
2022-12-25T00:09:21.558Z,13.40
2022-12-25T00:09:31.648Z,13.80
2022-12-25T00:09:41.582Z,9.40
2022-12-25T00:09:51.614Z,10.20
2022-12-25T00:10:01.548Z,11.60
2022-12-25T00:10:11.617Z,10.90
2022-12-25T00:10:21.646Z,8.70
2022-12-25T00:10:31.622Z,7.60
2022-12-25T00:10:45.174Z,9.30
2022-12-25T00:10:51.563Z,10.50
2022-12-25T00:11:01.607Z,8.50
2022-12-25T00:11:11.555Z,6.30
2022-12-25T00:11:21.657Z,5.50
2022-12-25T00:11:31.554Z,5.60
2022-12-25T00:11:41.593Z,7.10
2022-12-25T00:11:51.560Z,8.70
2022-12-25T00:12:01.579Z,12.30
2022-12-25T00:12:11.567Z,13.60
2022-12-25T00:12:21.530Z,12.00
2022-12-25T00:12:31.622Z,8.40
2022-12-25T00:12:41.581Z,12.40
2022-12-25T00:12:51.535Z,16.50
2022-12-25T00:13:01.645Z,18.50
2022-12-25T00:13:11.571Z,14.50
2022-12-25T00:13:21.711Z,10.80
2022-12-25T00:13:31.637Z,11.60
2022-12-25T00:13:41.537Z,9.00
2022-12-25T00:13:51.612Z,9.00
2022-12-25T00:14:01.554Z,7.40
2022-12-25T00:14:11.547Z,8.40
2022-12-25T00:14:21.570Z,9.40
2022-12-25T00:14:31.636Z,9.70
2022-12-25T00:14:41.636Z,9.40
2022-12-25T00:14:51.647Z,9.80
2022-12-25T00:15:01.585Z,11.10
2022-12-25T00:15:11.534Z,13.00
2022-12-25T00:15:21.604Z,12.20
2022-12-25T00:15:31.566Z,11.20
2022-12-25T00:15:41.561Z,11.20
2022-12-25T00:15:51.558Z,11.70
2022-12-25T00:16:01.642Z,11.00
2022-12-25T00:16:11.746Z,8.90
2022-12-25T00:16:21.743Z,8.70
2022-12-25T00:16:31.581Z,7.00
2022-12-25T00:16:41.620Z,9.20
2022-12-25T00:16:51.530Z,12.50
2022-12-25T00:17:01.668Z,15.30
2022-12-25T00:17:11.612Z,16.90
2022-12-25T00:17:21.662Z,13.50
2022-12-25T00:17:31.650Z,13.30
2022-12-25T00:17:41.642Z,10.50
2022-12-25T00:17:51.654Z,11.80
2022-12-25T00:18:01.659Z,11.00
2022-12-25T00:18:11.571Z,10.10
2022-12-25T00:18:21.521Z,9.50
2022-12-25T00:18:31.533Z,13.70
2022-12-25T00:18:41.580Z,15.50
2022-12-25T00:18:51.740Z,14.70
2022-12-25T00:19:01.623Z,11.80
2022-12-25T00:19:11.545Z,10.90
2022-12-25T00:19:21.643Z,10.60
2022-12-25T00:19:31.581Z,9.00
2022-12-25T00:19:41.589Z,8.80
2022-12-25T00:19:51.571Z,10.90
2022-12-25T00:20:01.573Z,11.90
2022-12-25T00:20:11.545Z,11.90
2022-12-25T00:20:21.575Z,12.40
2022-12-25T00:20:31.545Z,11.50
2022-12-25T00:20:41.526Z,12.40
2022-12-25T00:20:51.652Z,10.20
2022-12-25T00:21:01.563Z,9.70
2022-12-25T00:21:11.556Z,7.90
2022-12-25T00:21:21.565Z,9.20
2022-12-25T00:21:31.581Z,11.60
2022-12-25T00:21:41.575Z,12.10
2022-12-25T00:21:51.561Z,13.70
2022-12-25T00:22:01.653Z,14.30
2022-12-25T00:22:11.653Z,13.70
2022-12-25T00:22:21.568Z,12.20
2022-12-25T00:22:31.581Z,11.80
2022-12-25T00:22:41.665Z,11.90
2022-12-25T00:22:51.543Z,10.20
2022-12-25T00:23:01.639Z,10.30
2022-12-25T00:23:11.600Z,10.70
2022-12-25T00:23:21.663Z,11.00
2022-12-25T00:23:31.645Z,9.90
2022-12-25T00:23:41.633Z,9.70
2022-12-25T00:23:51.624Z,9.00
2022-12-25T00:24:01.643Z,10.10
2022-12-25T00:24:11.598Z,10.50
2022-12-25T00:24:21.600Z,11.20
2022-12-25T00:24:31.552Z,8.00
2022-12-25T00:24:41.648Z,9.00
2022-12-25T00:24:51.645Z,9.70
2022-12-25T00:25:01.612Z,12.10
2022-12-25T00:25:11.517Z,10.60
2022-12-25T00:25:21.584Z,9.90
2022-12-25T00:25:31.610Z,8.70
2022-12-25T00:25:41.586Z,9.90
2022-12-25T00:25:51.626Z,9.10
2022-12-25T00:26:01.739Z,9.90
2022-12-25T00:26:11.595Z,10.20
2022-12-25T00:26:21.549Z,10.20
2022-12-25T00:26:31.614Z,10.40
2022-12-25T00:26:41.534Z,10.70
2022-12-25T00:26:51.527Z,11.20
2022-12-25T00:27:01.540Z,10.70
2022-12-25T00:27:11.598Z,9.40
2022-12-25T00:27:21.556Z,9.30
2022-12-25T00:27:31.644Z,8.30
2022-12-25T00:27:41.563Z,8.10
2022-12-25T00:27:51.643Z,8.70
2022-12-25T00:28:01.585Z,11.20
2022-12-25T00:28:11.551Z,14.60
2022-12-25T00:28:21.649Z,12.40
2022-12-25T00:28:31.677Z,10.50
2022-12-25T00:28:41.628Z,7.50
2022-12-25T00:28:51.617Z,10.60
2022-12-25T00:29:01.642Z,10.10
2022-12-25T00:29:11.574Z,12.60
2022-12-25T00:29:21.631Z,11.00
2022-12-25T00:29:31.541Z,12.80
2022-12-25T00:29:41.590Z,10.70
2022-12-25T00:29:51.631Z,10.00
2022-12-25T00:30:01.543Z,9.60
2022-12-25T00:30:11.530Z,7.50
2022-12-25T00:30:21.568Z,6.40
2022-12-25T00:30:31.606Z,4.50
2022-12-25T00:30:41.608Z,6.40
2022-12-25T00:30:51.590Z,7.20
2022-12-25T00:31:01.594Z,9.80
2022-12-25T00:31:11.782Z,8.90
2022-12-25T00:31:21.700Z,10.30
2022-12-25T00:31:31.635Z,7.10
2022-12-25T00:31:41.549Z,7.50
2022-12-25T00:31:51.726Z,8.10
2022-12-25T00:32:01.677Z,10.60
2022-12-25T00:32:11.664Z,13.00
2022-12-25T00:32:21.597Z,12.40
2022-12-25T00:32:31.596Z,12.70
2022-12-25T00:32:41.561Z,10.30
2022-12-25T00:32:51.625Z,11.90
2022-12-25T00:33:01.525Z,9.00
2022-12-25T00:33:11.617Z,8.30
2022-12-25T00:33:21.607Z,7.50
2022-12-25T00:33:31.628Z,10.40
2022-12-25T00:33:41.569Z,13.30
2022-12-25T00:33:51.550Z,11.10
2022-12-25T00:34:01.566Z,8.30
2022-12-25T00:34:11.592Z,6.60
2022-12-25T00:34:21.644Z,9.60
2022-12-25T00:34:31.534Z,9.70
2022-12-25T00:34:41.643Z,12.40
2022-12-25T00:34:51.557Z,11.10
2022-12-25T00:35:01.543Z,14.70
2022-12-25T00:35:11.543Z,14.50
2022-12-25T00:35:21.614Z,14.30
2022-12-25T00:35:31.623Z,14.00
2022-12-25T00:35:41.538Z,11.60
2022-12-25T00:35:51.570Z,11.10
2022-12-25T00:36:01.569Z,8.80
2022-12-25T00:36:11.555Z,11.10
2022-12-25T00:36:21.585Z,15.20
2022-12-25T00:36:36.216Z,15.90
2022-12-25T00:36:42.387Z,17.20
2022-12-25T00:36:51.641Z,12.70
2022-12-25T00:37:01.553Z,11.80
2022-12-25T00:37:11.543Z,7.50
2022-12-25T00:37:21.567Z,6.10
2022-12-25T00:37:31.598Z,5.60
2022-12-25T00:37:41.536Z,5.80
2022-12-25T00:37:51.566Z,10.50
2022-12-25T00:38:01.583Z,9.80
2022-12-25T00:38:11.614Z,9.00
2022-12-25T00:38:21.575Z,7.60
2022-12-25T00:38:31.547Z,8.30
2022-12-25T00:38:41.633Z,8.50
2022-12-25T00:38:51.602Z,7.60
2022-12-25T00:39:01.635Z,10.60
2022-12-25T00:39:11.528Z,12.10
2022-12-25T00:39:21.555Z,11.00
2022-12-25T00:39:31.658Z,9.00
2022-12-25T00:39:41.553Z,7.20
2022-12-25T00:39:51.606Z,9.40
2022-12-25T00:40:01.599Z,8.10
2022-12-25T00:40:11.653Z,8.30
2022-12-25T00:40:21.575Z,9.30
2022-12-25T00:40:31.567Z,11.80
2022-12-25T00:40:41.592Z,14.40
2022-12-25T00:40:51.608Z,11.80
2022-12-25T00:41:01.566Z,10.40
2022-12-25T00:41:11.603Z,7.70
2022-12-25T00:41:21.612Z,8.60
2022-12-25T00:41:31.637Z,8.20
2022-12-25T00:41:41.619Z,9.40
2022-12-25T00:41:51.572Z,9.20
2022-12-25T00:42:01.621Z,10.30
2022-12-25T00:42:11.563Z,10.80
2022-12-25T00:42:21.620Z,12.40
2022-12-25T00:42:31.576Z,10.50
2022-12-25T00:42:41.642Z,7.40
2022-12-25T00:42:51.633Z,8.40
2022-12-25T00:43:01.634Z,10.20
2022-12-25T00:43:11.575Z,9.40
2022-12-25T00:43:21.550Z,7.90
2022-12-25T00:43:31.554Z,11.10
2022-12-25T00:43:41.564Z,9.70
2022-12-25T00:43:51.571Z,9.50
2022-12-25T00:44:01.582Z,8.40
2022-12-25T00:44:11.519Z,7.80
2022-12-25T00:44:21.551Z,9.40
2022-12-25T00:44:31.568Z,8.00
2022-12-25T00:44:41.535Z,11.40
2022-12-25T00:44:51.606Z,8.20
2022-12-25T00:45:01.662Z,12.60
2022-12-25T00:45:11.617Z,12.10
2022-12-25T00:45:21.693Z,13.50
2022-12-25T00:45:31.772Z,9.70
2022-12-25T00:45:41.709Z,8.10
2022-12-25T00:45:51.692Z,8.70
2022-12-25T00:46:01.690Z,9.50
2022-12-25T00:46:11.812Z,10.30
2022-12-25T00:46:21.832Z,11.70
2022-12-25T00:46:31.648Z,13.00
2022-12-25T00:46:41.651Z,14.90
2022-12-25T00:46:51.582Z,13.10
2022-12-25T00:47:01.625Z,10.30
2022-12-25T00:47:11.669Z,9.50
2022-12-25T00:47:21.723Z,10.40
2022-12-25T00:47:31.665Z,11.90
2022-12-25T00:47:41.613Z,10.80
2022-12-25T00:47:51.550Z,11.90
2022-12-25T00:48:01.554Z,12.70
2022-12-25T00:48:11.622Z,13.80
2022-12-25T00:48:21.524Z,11.30
2022-12-25T00:48:31.644Z,11.00
2022-12-25T00:48:41.521Z,9.10
2022-12-25T00:48:51.541Z,12.30
2022-12-25T00:49:01.618Z,11.80
2022-12-25T00:49:11.574Z,15.30
2022-12-25T00:49:21.562Z,12.10
2022-12-25T00:49:31.599Z,11.00
2022-12-25T00:49:41.541Z,9.40
2022-12-25T00:49:51.649Z,12.10
2022-12-25T00:50:01.684Z,11.60
2022-12-25T00:50:11.601Z,10.90
2022-12-25T00:50:21.618Z,9.50
2022-12-25T00:50:31.650Z,10.10
2022-12-25T00:50:41.616Z,10.60
2022-12-25T00:50:51.644Z,11.60
2022-12-25T00:51:01.662Z,12.50
2022-12-25T00:51:11.562Z,11.90
2022-12-25T00:51:21.600Z,13.30
2022-12-25T00:51:31.557Z,11.10
2022-12-25T00:51:41.627Z,12.90
2022-12-25T00:51:51.613Z,11.70
2022-12-25T00:52:01.663Z,12.00
2022-12-25T00:52:11.581Z,12.70
2022-12-25T00:52:21.656Z,11.50
2022-12-25T00:52:31.568Z,14.90
2022-12-25T00:52:41.565Z,10.90
2022-12-25T00:52:51.612Z,11.50
2022-12-25T00:53:01.635Z,8.40
2022-12-25T00:53:11.558Z,9.30
2022-12-25T00:53:21.519Z,10.50
2022-12-25T00:53:31.557Z,11.10
2022-12-25T00:53:41.529Z,12.30
2022-12-25T00:53:51.655Z,10.20
2022-12-25T00:54:01.533Z,9.20
2022-12-25T00:54:11.618Z,6.40
2022-12-25T00:54:21.657Z,7.40
2022-12-25T00:54:31.591Z,9.00
2022-12-25T00:54:41.707Z,11.10
2022-12-25T00:54:51.641Z,10.80
2022-12-25T00:55:01.656Z,12.60
2022-12-25T00:55:11.643Z,11.80
2022-12-25T00:55:21.637Z,10.90
2022-12-25T00:55:31.523Z,8.70
2022-12-25T00:55:41.548Z,9.00
2022-12-25T00:55:51.547Z,7.60
2022-12-25T00:56:01.631Z,10.00
2022-12-25T00:56:11.656Z,10.30
2022-12-25T00:56:21.618Z,10.50
2022-12-25T00:56:31.607Z,7.50
2022-12-25T00:56:41.524Z,8.60
2022-12-25T00:56:51.538Z,9.30
2022-12-25T00:57:01.584Z,10.60
2022-12-25T00:57:11.619Z,11.50
2022-12-25T00:57:21.525Z,12.00
2022-12-25T00:57:31.593Z,10.50
2022-12-25T00:57:41.595Z,8.60
2022-12-25T00:57:51.637Z,9.60
2022-12-25T00:58:01.552Z,10.70
2022-12-25T00:58:11.631Z,15.20
2022-12-25T00:58:21.547Z,14.20
2022-12-25T00:58:31.621Z,15.20
2022-12-25T00:58:41.566Z,11.50
2022-12-25T00:58:51.631Z,10.90
2022-12-25T00:59:01.615Z,9.00
2022-12-25T00:59:11.620Z,10.30
2022-12-25T00:59:21.643Z,15.30
2022-12-25T00:59:31.639Z,17.80
2022-12-25T00:59:41.609Z,14.40
2022-12-25T00:59:51.651Z,9.50
2022-12-25T01:00:01.560Z,6.50
2022-12-25T01:00:11.572Z,6.70
2022-12-25T01:00:21.550Z,6.40
2022-12-25T01:00:31.795Z,6.80
2022-12-25T01:00:41.670Z,7.50
2022-12-25T01:00:51.622Z,9.10
2022-12-25T01:01:01.679Z,9.90
2022-12-25T01:01:11.697Z,11.20
2022-12-25T01:01:21.715Z,10.50
2022-12-25T01:01:31.763Z,10.70
2022-12-25T01:01:41.810Z,11.30
2022-12-25T01:01:51.717Z,10.70
2022-12-25T01:02:01.588Z,11.60
2022-12-25T01:02:11.651Z,9.40
2022-12-25T01:02:21.712Z,8.80
2022-12-25T01:02:31.763Z,7.60
2022-12-25T01:02:41.682Z,7.00
2022-12-25T01:02:51.756Z,8.50
2022-12-25T01:03:01.794Z,9.30
2022-12-25T01:03:11.594Z,10.80
2022-12-25T01:03:21.610Z,11.20
2022-12-25T01:03:31.675Z,13.70
2022-12-25T01:03:41.520Z,16.40
2022-12-25T01:03:51.535Z,17.40
2022-12-25T01:04:01.639Z,15.90
2022-12-25T01:04:11.644Z,12.70
2022-12-25T01:04:21.619Z,11.90
2022-12-25T01:04:31.616Z,12.50
2022-12-25T01:04:41.606Z,11.50
2022-12-25T01:04:51.525Z,11.30
2022-12-25T01:05:01.651Z,11.10
2022-12-25T01:05:11.647Z,12.20
2022-12-25T01:05:21.638Z,11.10
2022-12-25T01:05:31.602Z,9.80
2022-12-25T01:05:41.616Z,11.40
2022-12-25T01:05:51.604Z,12.80
2022-12-25T01:06:01.540Z,12.30
2022-12-25T01:06:11.604Z,10.70
2022-12-25T01:06:21.587Z,9.80
2022-12-25T01:06:31.646Z,10.20
2022-12-25T01:06:41.581Z,10.10
2022-12-25T01:06:51.520Z,10.10
2022-12-25T01:07:01.574Z,12.60
2022-12-25T01:07:11.596Z,12.10
2022-12-25T01:07:21.647Z,11.10
2022-12-25T01:07:31.583Z,12.40
2022-12-25T01:07:41.621Z,13.70
2022-12-25T01:07:51.634Z,14.80
2022-12-25T01:08:01.584Z,10.20
2022-12-25T01:08:11.612Z,10.20
2022-12-25T01:08:21.574Z,10.30
2022-12-25T01:08:31.580Z,13.00
2022-12-25T01:08:41.612Z,15.10
2022-12-25T01:08:51.636Z,14.60
2022-12-25T01:09:01.524Z,15.10
2022-12-25T01:09:11.614Z,12.20
2022-12-25T01:09:21.644Z,12.30
2022-12-25T01:09:31.608Z,12.00
2022-12-25T01:09:41.564Z,13.50
2022-12-25T01:09:51.576Z,16.00
2022-12-25T01:10:01.630Z,13.40
2022-12-25T01:10:11.649Z,12.90
2022-12-25T01:10:21.542Z,11.60
2022-12-25T01:10:31.588Z,12.70
2022-12-25T01:10:41.540Z,11.40
2022-12-25T01:10:51.579Z,10.30
2022-12-25T01:11:01.551Z,11.70
2022-12-25T01:11:11.582Z,11.50
2022-12-25T01:11:21.598Z,10.70
2022-12-25T01:11:31.651Z,8.40
2022-12-25T01:11:41.627Z,9.40
2022-12-25T01:11:51.561Z,9.80
2022-12-25T01:12:01.531Z,11.50
2022-12-25T01:12:11.623Z,14.30
2022-12-25T01:12:21.592Z,16.50
2022-12-25T01:12:31.584Z,15.80
2022-12-25T01:12:41.582Z,13.20
2022-12-25T01:12:51.560Z,13.00
2022-12-25T01:13:01.519Z,11.80
2022-12-25T01:13:11.618Z,11.60
2022-12-25T01:13:21.542Z,10.50
2022-12-25T01:13:31.653Z,10.50
2022-12-25T01:13:41.575Z,9.60
2022-12-25T01:13:51.553Z,12.10
2022-12-25T01:14:01.574Z,12.20
2022-12-25T01:14:11.591Z,11.10
2022-12-25T01:14:21.607Z,8.00
2022-12-25T01:14:31.553Z,9.20
2022-12-25T01:14:41.571Z,11.90
2022-12-25T01:14:51.580Z,11.70
2022-12-25T01:15:01.621Z,10.30
2022-12-25T01:15:11.637Z,7.40
2022-12-25T01:15:21.617Z,5.80
2022-12-25T01:15:31.656Z,7.20
2022-12-25T01:15:41.648Z,8.10
2022-12-25T01:15:51.667Z,9.70
2022-12-25T01:16:01.640Z,9.90
2022-12-25T01:16:11.695Z,11.40
2022-12-25T01:16:21.710Z,11.50
2022-12-25T01:16:31.713Z,9.70
2022-12-25T01:16:41.779Z,9.70
2022-12-25T01:16:51.696Z,8.90
2022-12-25T01:17:01.542Z,8.70
2022-12-25T01:17:11.617Z,8.30
2022-12-25T01:17:21.659Z,9.80
2022-12-25T01:17:31.623Z,12.10
2022-12-25T01:17:41.621Z,14.90
2022-12-25T01:17:51.564Z,14.50
2022-12-25T01:18:07.597Z,14.40
2022-12-25T01:18:12.977Z,10.50
2022-12-25T01:18:21.534Z,9.20
2022-12-25T01:18:31.649Z,7.30
2022-12-25T01:18:41.636Z,7.00
2022-12-25T01:18:51.580Z,9.10
2022-12-25T01:19:01.715Z,9.10
2022-12-25T01:19:11.614Z,12.90
2022-12-25T01:19:21.619Z,11.50
2022-12-25T01:19:31.637Z,13.30
2022-12-25T01:19:41.636Z,11.30
2022-12-25T01:19:51.666Z,12.10
2022-12-25T01:20:01.655Z,10.20
2022-12-25T01:20:11.545Z,10.80
2022-12-25T01:20:21.520Z,10.50
2022-12-25T01:20:31.659Z,11.90
2022-12-25T01:20:41.641Z,13.20
2022-12-25T01:20:51.606Z,12.10
2022-12-25T01:21:01.543Z,14.10
2022-12-25T01:21:11.649Z,11.40
2022-12-25T01:21:21.632Z,14.30
2022-12-25T01:21:31.545Z,11.20
2022-12-25T01:21:41.568Z,13.30
2022-12-25T01:21:51.599Z,11.70
2022-12-25T01:22:01.693Z,12.90
2022-12-25T01:22:11.606Z,13.00
2022-12-25T01:22:21.584Z,13.10
2022-12-25T01:22:31.625Z,9.80
2022-12-25T01:22:41.635Z,10.10
2022-12-25T01:22:51.652Z,10.90
2022-12-25T01:23:01.562Z,12.40
2022-12-25T01:23:11.520Z,10.90
2022-12-25T01:23:21.627Z,10.70
2022-12-25T01:23:31.538Z,12.10
2022-12-25T01:23:41.612Z,9.40
2022-12-25T01:23:51.561Z,8.10
2022-12-25T01:24:01.567Z,9.50
2022-12-25T01:24:11.583Z,14.10
2022-12-25T01:24:21.659Z,14.80
2022-12-25T01:24:31.603Z,13.60
2022-12-25T01:24:41.623Z,13.70
2022-12-25T01:24:51.534Z,13.80
2022-12-25T01:25:01.581Z,14.10
2022-12-25T01:25:11.644Z,13.60
2022-12-25T01:25:21.640Z,13.20
2022-12-25T01:25:31.599Z,10.10
2022-12-25T01:25:41.600Z,9.30
2022-12-25T01:25:51.581Z,9.20
2022-12-25T01:26:01.588Z,9.70
2022-12-25T01:26:11.623Z,6.70
2022-12-25T01:26:21.599Z,8.00
2022-12-25T01:26:31.552Z,8.50
2022-12-25T01:26:41.561Z,8.80
2022-12-25T01:26:51.653Z,9.30
2022-12-25T01:27:01.554Z,9.30
2022-12-25T01:27:11.580Z,11.40
2022-12-25T01:27:21.560Z,11.90
2022-12-25T01:27:31.591Z,11.60
2022-12-25T01:27:41.550Z,9.40
2022-12-25T01:27:51.569Z,9.60
2022-12-25T01:28:01.656Z,9.40
2022-12-25T01:28:11.570Z,13.30
2022-12-25T01:28:21.526Z,10.90
2022-12-25T01:28:31.569Z,11.40
2022-12-25T01:28:41.593Z,9.90
2022-12-25T01:28:51.614Z,11.00
2022-12-25T01:29:01.622Z,13.20
2022-12-25T01:29:11.549Z,12.10
2022-12-25T01:29:21.584Z,11.00
2022-12-25T01:29:31.648Z,7.60
2022-12-25T01:29:41.654Z,8.70
2022-12-25T01:29:51.623Z,7.80
2022-12-25T01:30:01.580Z,8.30
2022-12-25T01:30:11.574Z,8.10
2022-12-25T01:30:21.591Z,9.40
2022-12-25T01:30:31.653Z,12.20
2022-12-25T01:30:41.536Z,12.30
2022-12-25T01:30:51.569Z,10.30
2022-12-25T01:31:01.542Z,8.00
2022-12-25T01:31:11.736Z,6.70
2022-12-25T01:31:21.712Z,10.90
2022-12-25T01:31:31.571Z,10.80
2022-12-25T01:31:41.669Z,12.70
2022-12-25T01:31:51.689Z,9.70
2022-12-25T01:32:01.646Z,10.60
2022-12-25T01:32:11.607Z,8.40
2022-12-25T01:32:21.580Z,8.00
2022-12-25T01:32:31.569Z,6.20
2022-12-25T01:32:41.538Z,9.60
2022-12-25T01:32:51.546Z,13.50
2022-12-25T01:33:01.621Z,16.40
2022-12-25T01:33:11.621Z,12.50
2022-12-25T01:33:21.588Z,10.90
2022-12-25T01:33:31.631Z,8.00
2022-12-25T01:33:41.553Z,8.80
2022-12-25T01:33:51.526Z,11.20
2022-12-25T01:34:01.568Z,13.00
2022-12-25T01:34:11.560Z,14.40
2022-12-25T01:34:21.560Z,11.40
2022-12-25T01:34:31.567Z,13.50
2022-12-25T01:34:41.623Z,10.80
2022-12-25T01:34:55.888Z,11.40
2022-12-25T01:35:01.701Z,10.10
2022-12-25T01:35:11.634Z,15.20
2022-12-25T01:35:21.660Z,13.70
2022-12-25T01:35:31.575Z,12.10
2022-12-25T01:35:41.636Z,5.30
2022-12-25T01:35:51.553Z,6.60
2022-12-25T01:36:01.556Z,8.40
2022-12-25T01:36:11.576Z,9.20
2022-12-25T01:36:21.535Z,12.20
2022-12-25T01:36:31.637Z,11.60
2022-12-25T01:36:41.590Z,14.70
2022-12-25T01:36:51.613Z,10.80
2022-12-25T01:37:01.640Z,12.50
2022-12-25T01:37:11.552Z,8.90
2022-12-25T01:37:21.531Z,9.20
2022-12-25T01:37:31.578Z,8.80
2022-12-25T01:37:41.526Z,10.30
2022-12-25T01:37:51.649Z,9.90
2022-12-25T01:38:01.573Z,12.30
2022-12-25T01:38:11.612Z,11.70
2022-12-25T01:38:21.676Z,14.20
2022-12-25T01:38:31.661Z,12.90
2022-12-25T01:38:41.604Z,14.40
2022-12-25T01:38:51.664Z,13.10
2022-12-25T01:39:01.618Z,12.90
2022-12-25T01:39:11.598Z,10.90
2022-12-25T01:39:21.592Z,9.50
2022-12-25T01:39:31.615Z,9.50
2022-12-25T01:39:41.577Z,11.90
2022-12-25T01:39:51.579Z,11.00
2022-12-25T01:40:01.643Z,12.50
2022-12-25T01:40:11.572Z,11.10
2022-12-25T01:40:21.660Z,13.90
2022-12-25T01:40:31.623Z,12.60
2022-12-25T01:40:41.594Z,11.00
2022-12-25T01:40:51.563Z,10.60
2022-12-25T01:41:01.521Z,8.00
2022-12-25T01:41:11.543Z,8.40
2022-12-25T01:41:21.599Z,6.10
2022-12-25T01:41:31.632Z,7.60
2022-12-25T01:41:41.547Z,6.40
2022-12-25T01:41:51.534Z,7.20
2022-12-25T01:42:01.575Z,6.90
2022-12-25T01:42:11.632Z,8.20
2022-12-25T01:42:21.565Z,8.50
2022-12-25T01:42:31.588Z,8.40
2022-12-25T01:42:41.620Z,7.40
2022-12-25T01:42:51.626Z,8.80
2022-12-25T01:43:01.541Z,9.20
2022-12-25T01:43:17.038Z,11.70
2022-12-25T01:43:21.643Z,13.00
2022-12-25T01:43:31.589Z,14.40
2022-12-25T01:43:41.613Z,13.40
2022-12-25T01:43:51.556Z,10.40
2022-12-25T01:44:01.523Z,8.90
2022-12-25T01:44:11.652Z,9.40
2022-12-25T01:44:21.593Z,9.50
2022-12-25T01:44:31.646Z,8.80
2022-12-25T01:44:41.568Z,9.10
2022-12-25T01:44:51.521Z,10.80
2022-12-25T01:45:01.586Z,9.50
2022-12-25T01:45:11.552Z,9.50
2022-12-25T01:45:21.689Z,9.90
2022-12-25T01:45:31.691Z,11.90
2022-12-25T01:45:41.618Z,10.70
2022-12-25T01:45:51.600Z,8.20
2022-12-25T01:46:01.654Z,7.10
2022-12-25T01:46:11.612Z,8.80
2022-12-25T01:46:21.647Z,11.80
2022-12-25T01:46:31.580Z,12.30
2022-12-25T01:46:41.553Z,10.70
2022-12-25T01:46:51.650Z,11.20
2022-12-25T01:47:01.604Z,10.60
2022-12-25T01:47:11.619Z,11.10
2022-12-25T01:47:21.605Z,9.40
2022-12-25T01:47:31.652Z,10.70
2022-12-25T01:47:41.655Z,11.60
2022-12-25T01:47:51.549Z,10.20
2022-12-25T01:48:01.579Z,11.90
2022-12-25T01:48:11.628Z,13.00
2022-12-25T01:48:21.590Z,13.00
2022-12-25T01:48:31.596Z,11.00
2022-12-25T01:48:41.640Z,11.60
2022-12-25T01:48:51.531Z,12.20
2022-12-25T01:49:01.592Z,14.20
2022-12-25T01:49:11.531Z,13.40
2022-12-25T01:49:21.527Z,14.40
2022-12-25T01:49:31.594Z,12.10
2022-12-25T01:49:41.631Z,10.40
2022-12-25T01:49:51.618Z,9.80
2022-12-25T01:50:01.550Z,8.90
2022-12-25T01:50:11.613Z,8.30
2022-12-25T01:50:21.631Z,7.30
2022-12-25T01:50:31.532Z,6.20
2022-12-25T01:50:41.625Z,6.90
2022-12-25T01:50:51.657Z,5.90
2022-12-25T01:51:01.606Z,5.90
2022-12-25T01:51:11.661Z,5.70
2022-12-25T01:51:21.590Z,6.90
2022-12-25T01:51:31.574Z,10.20
2022-12-25T01:51:41.576Z,12.30
2022-12-25T01:51:51.629Z,13.80
2022-12-25T01:52:01.561Z,11.10
2022-12-25T01:52:11.651Z,10.60
2022-12-25T01:52:24.112Z,12.10
2022-12-25T01:52:31.566Z,12.10
2022-12-25T01:52:41.632Z,10.40
2022-12-25T01:52:51.605Z,10.10
2022-12-25T01:53:01.621Z,9.90
2022-12-25T01:53:11.519Z,11.00
2022-12-25T01:53:21.615Z,8.60
2022-12-25T01:53:31.563Z,12.30
2022-12-25T01:53:41.538Z,12.20
2022-12-25T01:53:51.628Z,11.80
2022-12-25T01:54:01.631Z,10.10
2022-12-25T01:54:11.568Z,9.60
2022-12-25T01:54:21.523Z,11.70
2022-12-25T01:54:31.565Z,11.70
2022-12-25T01:54:41.566Z,11.80
2022-12-25T01:54:51.539Z,11.90
2022-12-25T01:55:01.691Z,10.80
2022-12-25T01:55:11.591Z,10.20
2022-12-25T01:55:21.652Z,9.50
2022-12-25T01:55:31.587Z,13.10
2022-12-25T01:55:41.591Z,12.80
2022-12-25T01:55:51.618Z,11.70
2022-12-25T01:56:01.534Z,9.20
2022-12-25T01:56:11.556Z,10.60
2022-12-25T01:56:21.569Z,10.30
2022-12-25T01:56:31.583Z,8.60
2022-12-25T01:56:41.586Z,9.10
2022-12-25T01:56:51.543Z,12.20
2022-12-25T01:57:01.619Z,13.00
2022-12-25T01:57:11.606Z,14.60
2022-12-25T01:57:21.663Z,11.60
2022-12-25T01:57:31.585Z,10.50
2022-12-25T01:57:41.605Z,8.80
2022-12-25T01:57:51.643Z,8.70
2022-12-25T01:58:01.609Z,9.10
2022-12-25T01:58:11.539Z,9.40
2022-12-25T01:58:21.606Z,10.00
2022-12-25T01:58:31.535Z,11.60
2022-12-25T01:58:41.558Z,11.50
2022-12-25T01:58:51.589Z,15.40
2022-12-25T01:59:01.565Z,15.10
2022-12-25T01:59:11.595Z,14.00
2022-12-25T01:59:21.628Z,8.60
2022-12-25T01:59:31.582Z,10.70
2022-12-25T01:59:41.608Z,12.50
2022-12-25T01:59:51.596Z,14.30
2022-12-25T02:00:01.648Z,12.30
2022-12-25T02:00:11.591Z,12.10
2022-12-25T02:00:21.582Z,12.80
2022-12-25T02:00:31.568Z,12.90
2022-12-25T02:00:41.644Z,12.10
2022-12-25T02:00:51.672Z,9.90
2022-12-25T02:01:01.756Z,10.40
2022-12-25T02:01:11.734Z,9.50
2022-12-25T02:01:21.744Z,9.70
2022-12-25T02:01:31.676Z,8.70
2022-12-25T02:01:41.789Z,8.80
2022-12-25T02:01:51.715Z,11.40
2022-12-25T02:02:01.880Z,10.20
2022-12-25T02:02:11.852Z,12.60
2022-12-25T02:02:21.824Z,10.40
2022-12-25T02:02:31.732Z,13.50
2022-12-25T02:02:41.710Z,11.30
2022-12-25T02:02:51.676Z,11.60
2022-12-25T02:03:01.654Z,8.30
2022-12-25T02:03:11.667Z,7.90
2022-12-25T02:03:21.766Z,9.90
2022-12-25T02:03:31.743Z,11.50
2022-12-25T02:03:41.612Z,12.30
2022-12-25T02:03:51.713Z,10.80
2022-12-25T02:04:01.595Z,13.00
2022-12-25T02:04:11.648Z,12.70
2022-12-25T02:04:21.659Z,13.50
2022-12-25T02:04:31.577Z,10.70
2022-12-25T02:04:41.528Z,9.70
2022-12-25T02:04:51.548Z,9.40
2022-12-25T02:05:01.533Z,9.90
2022-12-25T02:05:11.564Z,11.00
2022-12-25T02:05:21.615Z,11.70
2022-12-25T02:05:31.638Z,10.90
2022-12-25T02:05:41.585Z,12.60
2022-12-25T02:05:51.542Z,12.40
2022-12-25T02:06:01.601Z,12.80
2022-12-25T02:06:11.645Z,10.40
2022-12-25T02:06:21.601Z,7.50
2022-12-25T02:06:31.548Z,8.00
2022-12-25T02:06:41.578Z,8.00
2022-12-25T02:06:51.598Z,10.40
2022-12-25T02:07:01.545Z,9.40
2022-12-25T02:07:11.624Z,11.40
2022-12-25T02:07:21.617Z,11.40
2022-12-25T02:07:31.594Z,10.00
2022-12-25T02:07:41.574Z,8.00
2022-12-25T02:07:51.620Z,8.10
2022-12-25T02:08:01.608Z,10.50
2022-12-25T02:08:11.558Z,10.20
2022-12-25T02:08:21.566Z,8.70
2022-12-25T02:08:31.608Z,11.10
2022-12-25T02:08:41.583Z,12.70
2022-12-25T02:08:51.628Z,13.30
2022-12-25T02:09:01.549Z,9.50
2022-12-25T02:09:11.606Z,7.90
2022-12-25T02:09:21.568Z,7.10
2022-12-25T02:09:31.622Z,10.50
2022-12-25T02:09:41.579Z,11.10
2022-12-25T02:09:51.554Z,11.20
2022-12-25T02:10:01.630Z,9.60
2022-12-25T02:10:11.645Z,8.50
2022-12-25T02:10:21.635Z,8.80